»·PEaware :: APA5351 CYWG-CYVR

APA5351 :: CYWG-CYVR

FLIGHT INFORMATION

Flight Status: Arrived
Operator: Unknown
More flights by this operator :: More flights under this callsign
Pilot: Stacy K. (11621)
Aircraft: BOEING 737-800
(B738)
More flights by this aircraft type
Origin: CYWG Winnipeg Intl
Canada
Destination: CYVR Vancouver Intl
Canada
More flights between these airports :: More routes between these airports
Route: LIVBI DUKPO FAREN YDR AXILI BOOTH CANUC4
File this flight plan on PilotEdge
Remarks: PBN / A1B1C1D1S1S2 DOF / 180520 REG / N1404PK EET / CZEG0117 CZVR0146 SEL / DEFK OPR / APA PER / C RMK / TCAS SIMBRIEF
Altitude:
(Current/Filed)
34,000ft
Speed:
(Current/Filed)
447kts
Departed: 20-May-18 04:25 AM
Arrived: 20-May-18 06:36 AM
Distance/Time
Traveled:
1006nm/2:11
Distance/Time
To Go:
Arrived

Flight Plot

Page will automatically refresh every two minutes.

Flight plan parsing failed; only flown route is shown


Map Options




Map Legend


Flown Route
Filed Route
Departure Airport
Arrival Airport
Navaid (VOR, NDB)
Fix

Horizontal Profiles

Position Reports

Time Latitude Longitude Heading Altitude Ground
Speed
20-May-18 04:24 50.303876 -101.645199 276 34275ft 463kts
20-May-18 04:25 50.317458 -101.846128 275 34276ft 464kts
20-May-18 04:26 50.331289 -102.047239 275 34277ft 465kts
20-May-18 04:27 50.344219 -102.248512 275 34278ft 465kts
20-May-18 04:28 50.356871 -102.449759 275 34282ft 464kts
20-May-18 04:29 50.361894 -102.651507 268 34289ft 463kts
20-May-18 04:30 50.358389 -102.852873 267 34289ft 462kts
20-May-18 04:31 50.353923 -103.053794 267 34289ft 461kts
20-May-18 04:32 50.348976 -103.254246 266 34290ft 460kts
20-May-18 04:33 50.344234 -103.454232 266 34288ft 460kts
20-May-18 04:34 50.339240 -103.653437 266 34288ft 459kts
20-May-18 04:35 50.333665 -103.853695 266 34287ft 458kts
20-May-18 04:36 50.328331 -104.052441 265 34286ft 458kts
20-May-18 04:37 50.323564 -104.202948 265 34283ft 458kts
20-May-18 04:38 50.318572 -104.355560 265 34281ft 457kts
20-May-18 04:39 50.312538 -104.541570 265 34280ft 457kts
20-May-18 04:40 50.306147 -104.740004 265 34282ft 456kts
20-May-18 04:41 50.298726 -104.937633 265 34286ft 454kts
20-May-18 04:42 50.291091 -105.134249 265 34296ft 451kts
20-May-18 04:43 50.283726 -105.329400 265 34307ft 449kts
20-May-18 04:44 50.275898 -105.523751 264 34310ft 445kts
20-May-18 04:45 50.267349 -105.716243 264 34309ft 442kts
20-May-18 04:46 50.258561 -105.907732 264 34304ft 441kts
20-May-18 04:47 50.249933 -106.098691 264 34294ft 441kts
20-May-18 04:48 50.240934 -106.289737 264 34279ft 441kts
20-May-18 04:49 50.231187 -106.481058 264 34259ft 443kts
20-May-18 04:50 50.221448 -106.673255 264 34234ft 445kts
20-May-18 04:51 50.211379 -106.866047 263 34211ft 446kts
20-May-18 04:52 50.200601 -107.059177 263 34193ft 446kts
20-May-18 04:53 50.190036 -107.251437 263 34181ft 445kts
20-May-18 04:54 50.181964 -107.395492 263 34175ft 444kts
20-May-18 04:55 50.170401 -107.586699 263 34172ft 442kts
20-May-18 04:56 50.158551 -107.776995 262 34170ft 440kts
20-May-18 04:57 50.146588 -107.966389 262 34169ft 438kts
20-May-18 04:58 50.134692 -108.155778 263 34167ft 438kts
20-May-18 04:59 50.122371 -108.345151 262 34164ft 440kts
20-May-18 05:00 50.109341 -108.534450 262 34161ft 441kts
20-May-18 05:01 50.096336 -108.724893 262 34157ft 443kts
20-May-18 05:02 50.082910 -108.915571 261 34153ft 443kts
20-May-18 05:03 50.068827 -109.106346 261 34135ft 442kts
20-May-18 05:04 50.054652 -109.296404 261 34101ft 441kts
20-May-18 05:05 50.040417 -109.485674 261 34094ft 438kts
20-May-18 05:06 50.026239 -109.673019 261 34088ft 436kts
20-May-18 05:07 50.011580 -109.859886 261 34081ft 434kts
20-May-18 05:08 50.000245 -110.046607 268 34078ft 435kts
20-May-18 05:09 50.002108 -110.235179 269 34074ft 435kts
20-May-18 05:10 50.003536 -110.371385 269 34072ft 437kts
20-May-18 05:11 50.005350 -110.560555 269 34070ft 438kts
20-May-18 05:12 50.006931 -110.749921 269 34064ft 439kts
20-May-18 05:13 50.007758 -110.939884 268 34060ft 439kts
20-May-18 05:14 50.008189 -111.129649 268 34058ft 438kts
20-May-18 05:15 50.008449 -111.319046 268 34054ft 437kts
20-May-18 05:16 50.008460 -111.507387 268 34048ft 435kts
20-May-18 05:17 50.008166 -111.694843 268 34041ft 432kts
20-May-18 05:18 50.007641 -111.881574 269 34034ft 431kts
20-May-18 05:19 50.007118 -112.068252 269 34025ft 431kts
20-May-18 05:20 50.006124 -112.254595 268 34019ft 431kts
20-May-18 05:21 50.004421 -112.441624 268 34017ft 432kts
20-May-18 05:22 50.002649 -112.628182 268 34015ft 433kts
20-May-18 05:23 50.000842 -112.815754 267 34013ft 434kts
20-May-18 05:24 49.998196 -113.002678 267 34011ft 432kts
20-May-18 05:25 49.995506 -113.189428 267 34011ft 431kts
20-May-18 05:26 49.992955 -113.375392 267 34011ft 431kts
20-May-18 05:27 49.989570 -113.561779 267 34012ft 431kts
20-May-18 05:28 49.985789 -113.747528 266 34012ft 430kts
20-May-18 05:29 49.981922 -113.933423 266 34011ft 430kts
20-May-18 05:30 49.978191 -114.119108 266 34049ft 430kts
20-May-18 05:31 49.973732 -114.304803 266 34071ft 430kts
20-May-18 05:32 49.968730 -114.490344 266 34099ft 430kts
20-May-18 05:33 49.963779 -114.675803 266 34120ft 431kts
20-May-18 05:34 49.958613 -114.862026 265 34132ft 432kts
20-May-18 05:35 49.952702 -115.048654 265 34131ft 432kts
20-May-18 05:36 49.947026 -115.234285 265 34117ft 432kts
20-May-18 05:37 49.940812 -115.420433 264 34097ft 431kts
20-May-18 05:38 49.934108 -115.605956 264 34078ft 430kts
20-May-18 05:39 49.927420 -115.791446 264 34064ft 429kts
20-May-18 05:40 49.920668 -115.975965 264 34044ft 429kts
20-May-18 05:41 49.913062 -116.161417 264 34042ft 429kts
20-May-18 05:42 49.905093 -116.346283 263 34040ft 430kts
20-May-18 05:43 49.897152 -116.531210 263 34038ft 430kts
20-May-18 05:44 49.889163 -116.716653 263 34036ft 431kts
20-May-18 05:45 49.880422 -116.901677 262 34035ft 431kts
20-May-18 05:46 49.871771 -117.087067 262 34035ft 431kts
20-May-18 05:47 49.862374 -117.271938 262 34031ft 430kts
20-May-18 05:48 49.853173 -117.456703 261 34032ft 429kts
20-May-18 05:49 49.843330 -117.640553 261 34031ft 428kts
20-May-18 05:50 49.833186 -117.824557 261 34030ft 428kts
20-May-18 05:51 49.823279 -118.007674 261 34029ft 427kts
20-May-18 05:52 49.812774 -118.191279 260 34028ft 427kts
20-May-18 05:53 49.801781 -118.374647 260 34026ft 428kts
20-May-18 05:54 49.790517 -118.558281 260 34024ft 429kts
20-May-18 05:55 49.778904 -118.741941 260 34022ft 429kts
20-May-18 05:56 49.767026 -118.925956 260 34021ft 430kts
20-May-18 05:57 49.754904 -119.109692 260 34021ft 430kts
20-May-18 05:58 49.742520 -119.294145 260 34020ft 430kts
20-May-18 05:59 49.730185 -119.477762 260 34020ft 430kts
20-May-18 06:00 49.719726 -119.631118 260 34020ft 430kts
20-May-18 06:01 49.706450 -119.814461 260 34020ft 429kts
20-May-18 06:02 49.692799 -119.997694 260 34020ft 429kts
20-May-18 06:03 49.678995 -120.180262 260 34020ft 429kts
20-May-18 06:04 49.664803 -120.363251 259 34020ft 429kts
20-May-18 06:05 49.650431 -120.546384 260 34020ft 429kts
20-May-18 06:06 49.635838 -120.728815 260 34020ft 429kts
20-May-18 06:07 49.620968 -120.911246 260 32965ft 427kts
20-May-18 06:08 49.606113 -121.090314 260 31175ft 414kts
20-May-18 06:09 49.591772 -121.263654 260 29385ft 401kts
20-May-18 06:10 49.577639 -121.432324 259 27584ft 391kts
20-May-18 06:11 49.563248 -121.596292 259 25785ft 382kts
20-May-18 06:12 49.548852 -121.756868 259 23981ft 373kts
20-May-18 06:13 49.534649 -121.913436 259 22182ft 365kts
20-May-18 06:14 49.514045 -122.063915 243 20376ft 355kts
20-May-18 06:15 49.463949 -122.192504 237 18749ft 347kts
20-May-18 06:16 49.413511 -122.317834 237 17147ft 341kts
20-May-18 06:17 49.367768 -122.432513 237 15667ft 298kts
20-May-18 06:18 49.324819 -122.539847 237 14266ft 292kts
20-May-18 06:19 49.283233 -122.645241 243 12993ft 287kts
20-May-18 06:20 49.262244 -122.759545 255 11801ft 273kts
20-May-18 06:21 49.245090 -122.866526 254 10656ft 270kts
20-May-18 06:22 49.245226 -122.940825 276 9881ft 272kts
20-May-18 06:23 49.255873 -123.031250 279 8920ft 267kts
20-May-18 06:24 49.269793 -123.143137 279 7721ft 266kts
20-May-18 06:25 49.283402 -123.253590 279 6525ft 264kts
20-May-18 06:26 49.296495 -123.359276 279 5400ft 233kts
20-May-18 06:27 49.308073 -123.452523 279 4419ft 217kts
20-May-18 06:28 49.317447 -123.531187 277 4022ft 219kts
20-May-18 06:29 49.282186 -123.575847 171 4075ft 224kts
20-May-18 06:30 49.232903 -123.532575 129 4012ft 191kts
20-May-18 06:31 49.216138 -123.454545 97 3229ft 196kts
20-May-18 06:32 49.209096 -123.374249 101 2220ft 181kts
20-May-18 06:33 49.200792 -123.303199 100 1304ft 164kts
20-May-18 06:34 49.193596 -123.238809 100 492ft 144kts
20-May-18 06:35 49.187454 -123.185131 98 24ft 64kts
20-May-18 06:36 49.187200 -123.174187 71 24ft 14kts
20-May-18 06:37 49.188580 -123.175828 279 24ft 16kts
20-May-18 06:38 49.189455 -123.183847 282 24ft 12kts
20-May-18 06:39 49.191562 -123.185831 31 24ft 6kts
20-May-18 06:40 49.193154 -123.186032 18 24ft 7kts
20-May-18 06:41 49.194192 -123.187098 308 24ft 6kts
20-May-18 06:42 49.194534 -123.187266 2 24ft 13kts
20-May-18 06:43 49.197654 -123.188244 281 24ft 21kts
20-May-18 06:44 49.198705 -123.189581 100 24ft 22kts
20-May-18 06:45 49.196853 -123.186627 196 24ft 0kts
20-May-18 06:46 49.194496 -123.182610 47 24ft 0kts

Navigation Log

Ident Type
Flight plan parsing failed, navigation log unavailable